createdAt,value
2017-09-23T00:02:32.649Z,52.50
2017-09-23T00:05:35.001Z,52.62
2017-09-23T00:08:37.041Z,50.53
2017-09-23T00:11:39.447Z,52.30
2017-09-23T00:14:41.446Z,54.40
2017-09-23T00:17:43.818Z,47.93
2017-09-23T00:20:45.868Z,48.55
2017-09-23T00:23:48.324Z,46.37
2017-09-23T00:26:50.374Z,44.47
2017-09-23T00:29:52.741Z,47.00
2017-09-23T00:32:54.878Z,45.95
2017-09-23T00:35:57.255Z,49.05
2017-09-23T00:38:59.490Z,46.45
2017-09-23T00:42:01.900Z,45.40
2017-09-23T00:45:03.859Z,47.20
2017-09-23T00:48:06.982Z,50.93
2017-09-23T00:51:08.911Z,44.97
2017-09-23T00:54:11.302Z,52.42
2017-09-23T00:57:13.248Z,47.38
2017-09-23T01:00:15.604Z,47.88
2017-09-23T01:03:17.555Z,49.83
2017-09-23T01:06:20.103Z,54.17
2017-09-23T01:09:22.047Z,52.83
2017-09-23T01:12:24.500Z,53.20
2017-09-23T01:15:26.443Z,52.10
2017-09-23T01:18:28.815Z,47.40
2017-09-23T01:21:30.750Z,59.80
2017-09-23T01:24:33.128Z,54.53
2017-09-23T01:27:35.068Z,48.53
2017-09-23T01:30:38.240Z,46.43
2017-09-23T01:33:40.194Z,44.03
2017-09-23T01:36:42.553Z,45.73
2017-09-23T01:39:44.494Z,52.17
2017-09-23T01:42:46.851Z,47.70
2017-09-23T01:45:48.798Z,49.90
2017-09-23T01:48:51.169Z,48.57
2017-09-23T01:51:53.198Z,51.53
2017-09-23T01:54:55.556Z,51.37
2017-09-23T01:57:57.520Z,54.57
2017-09-23T02:00:59.888Z,49.30
2017-09-23T02:04:01.986Z,53.27
2017-09-23T02:07:05.090Z,49.97
2017-09-23T02:10:07.049Z,45.87
2017-09-23T02:13:09.404Z,49.87
2017-09-23T02:16:11.348Z,49.27
2017-09-23T02:19:13.701Z,50.77
2017-09-23T02:22:15.672Z,47.03
2017-09-23T02:25:18.035Z,52.80
2017-09-23T02:28:19.963Z,52.47
2017-09-23T02:31:22.332Z,49.50
2017-09-23T02:34:24.427Z,47.80
2017-09-23T02:37:27.564Z,44.23
2017-09-23T02:40:29.608Z,48.37
2017-09-23T02:43:31.959Z,51.47
2017-09-23T02:46:33.887Z,44.17
2017-09-23T02:49:36.170Z,52.43
2017-09-23T02:52:38.156Z,46.03
2017-09-23T02:55:40.475Z,51.90
2017-09-23T02:58:42.507Z,46.50
2017-09-23T03:01:44.980Z,45.40
2017-09-23T03:04:46.940Z,49.60
2017-09-23T03:07:49.399Z,50.43
2017-09-23T03:10:51.432Z,49.73
2017-09-23T03:13:53.808Z,48.13
2017-09-23T03:16:55.751Z,45.20
2017-09-23T03:19:58.112Z,48.80
2017-09-23T03:23:00.155Z,45.63
2017-09-23T03:26:02.446Z,51.50
2017-09-23T03:29:04.404Z,44.80
2017-09-23T03:32:06.813Z,52.03
2017-09-23T03:35:08.844Z,59.57
2017-09-23T03:38:11.145Z,56.53
2017-09-23T03:41:13.156Z,52.60
2017-09-23T03:44:15.727Z,52.27
2017-09-23T03:47:17.689Z,50.23
2017-09-23T03:50:20.145Z,43.23
2017-09-23T03:53:22.323Z,49.03
2017-09-23T03:56:24.639Z,45.63
2017-09-23T03:59:26.569Z,45.03
2017-09-23T04:02:28.956Z,46.30
2017-09-23T04:05:31.017Z,44.50
2017-09-23T04:08:33.364Z,60.63
2017-09-23T04:11:35.303Z,54.87
2017-09-23T04:14:37.604Z,54.43
2017-09-23T04:17:39.635Z,54.87
2017-09-23T04:20:42.050Z,54.77
2017-09-23T04:23:44.943Z,51.47
2017-09-23T04:26:47.299Z,49.90
2017-09-23T04:29:49.336Z,46.10
2017-09-23T04:32:51.646Z,50.23
2017-09-23T04:35:53.669Z,44.93
2017-09-23T04:38:56.025Z,45.47
2017-09-23T04:41:58.366Z,47.90
2017-09-23T04:45:00.740Z,45.57
2017-09-23T04:48:02.787Z,47.13
2017-09-23T04:51:05.099Z,48.60
2017-09-23T04:54:07.851Z,43.77
2017-09-23T04:57:10.159Z,43.90
2017-09-23T05:00:12.331Z,48.27
2017-09-23T05:03:14.679Z,45.93
2017-09-23T05:06:16.621Z,46.23
2017-09-23T05:09:18.975Z,48.33
2017-09-23T05:12:20.907Z,49.73
2017-09-23T05:15:23.170Z,53.53
2017-09-23T05:18:25.117Z,55.67
2017-09-23T05:21:27.477Z,49.47
2017-09-23T05:24:29.439Z,45.73
2017-09-23T05:27:31.810Z,47.20
2017-09-23T05:30:33.832Z,48.40
2017-09-23T05:33:36.193Z,49.60
2017-09-23T05:36:38.345Z,54.13
2017-09-23T05:39:40.706Z,48.53
2017-09-23T05:42:42.672Z,56.00
2017-09-23T05:45:44.961Z,60.07
2017-09-23T05:48:46.901Z,59.60
2017-09-23T05:51:49.300Z,62.53
2017-09-23T05:54:51.270Z,56.97
2017-09-23T05:57:53.641Z,65.43
2017-09-23T06:00:55.882Z,66.07
2017-09-23T06:03:58.324Z,61.63
2017-09-23T06:07:00.383Z,60.50
2017-09-23T06:10:02.755Z,61.83
2017-09-23T06:13:04.710Z,61.97
2017-09-23T06:16:07.048Z,59.07
2017-09-23T06:19:08.983Z,53.37
2017-09-23T06:22:11.356Z,51.43
2017-09-23T06:25:13.297Z,47.53
2017-09-23T06:28:15.865Z,47.13
2017-09-23T06:31:17.804Z,41.83
2017-09-23T06:34:20.086Z,40.40
2017-09-23T06:37:22.170Z,38.80
2017-09-23T06:40:24.489Z,37.97
2017-09-23T06:43:26.420Z,35.92
2017-09-23T06:46:28.724Z,33.05
2017-09-23T06:49:30.728Z,31.23
2017-09-23T06:52:33.020Z,32.38
2017-09-23T06:55:35.032Z,32.15
2017-09-23T06:58:37.329Z,32.10
2017-09-23T07:01:40.160Z,32.80
2017-09-23T07:04:42.530Z,34.40
2017-09-23T07:07:44.668Z,33.35
2017-09-23T07:10:47.048Z,32.22
2017-09-23T07:13:48.988Z,31.85
2017-09-23T07:16:51.349Z,33.92
2017-09-23T07:19:53.421Z,30.98
2017-09-23T07:22:55.751Z,32.35
2017-09-23T07:25:57.805Z,31.40
2017-09-23T07:29:00.151Z,33.13
2017-09-23T07:32:02.298Z,34.50
2017-09-23T07:35:04.760Z,36.45
2017-09-23T07:38:06.716Z,35.65
2017-09-23T07:41:09.090Z,37.00
2017-09-23T07:44:11.037Z,34.00
2017-09-23T07:47:14.200Z,32.50
2017-09-23T07:50:16.240Z,31.35
2017-09-23T07:53:18.514Z,31.00
2017-09-23T07:56:20.442Z,32.80
2017-09-23T07:59:22.812Z,33.03
2017-09-23T08:02:24.759Z,38.05
2017-09-23T08:05:27.111Z,39.50
2017-09-23T08:08:29.091Z,39.05
2017-09-23T08:11:31.406Z,41.67
2017-09-23T08:14:33.362Z,42.53
2017-09-23T08:17:35.706Z,43.17
2017-09-23T08:20:37.666Z,41.50
2017-09-23T08:23:40.015Z,40.58
2017-09-23T08:26:42.077Z,41.78
2017-09-23T08:29:44.445Z,39.65
2017-09-23T08:32:46.507Z,36.15
2017-09-23T08:35:48.848Z,29.70
2017-09-23T08:38:50.892Z,30.05
2017-09-23T08:41:53.247Z,28.75
2017-09-23T08:44:55.192Z,27.73
2017-09-23T08:47:57.570Z,28.00
2017-09-23T08:50:59.498Z,28.40
2017-09-23T08:54:01.792Z,28.73
2017-09-23T08:57:03.804Z,25.50
2017-09-23T09:00:06.280Z,29.42
2017-09-23T09:03:08.305Z,27.95
2017-09-23T09:06:10.664Z,28.75
2017-09-23T09:09:16.243Z,30.35
2017-09-23T09:12:18.556Z,29.37
2017-09-23T09:15:20.489Z,28.15
2017-09-23T09:18:23.527Z,29.58
2017-09-23T09:21:25.531Z,29.02
2017-09-23T09:24:27.812Z,29.80
2017-09-23T09:30:45.725Z,28.85
2017-09-23T09:33:47.763Z,31.30
2017-09-23T09:36:51.039Z,31.02
2017-09-23T09:39:52.983Z,29.55
2017-09-23T09:42:55.346Z,28.73
2017-09-23T09:45:57.272Z,29.50
2017-09-23T09:48:59.649Z,28.23
2017-09-23T09:52:01.624Z,28.20
2017-09-23T09:55:03.960Z,28.75
2017-09-23T09:58:05.894Z,31.52
2017-09-23T10:01:08.992Z,28.83
2017-09-23T10:04:10.932Z,29.73
2017-09-23T10:07:13.293Z,30.50
2017-09-23T10:10:15.235Z,31.70
2017-09-23T10:13:17.592Z,31.15
2017-09-23T10:16:19.536Z,33.17
2017-09-23T10:19:21.915Z,34.17
2017-09-23T10:22:23.942Z,32.80
2017-09-23T10:25:26.303Z,33.33
2017-09-23T10:28:28.245Z,35.67
2017-09-23T10:31:30.624Z,33.53
2017-09-23T10:34:32.659Z,39.53
2017-09-23T10:37:35.019Z,38.47
2017-09-23T10:40:36.958Z,39.97
2017-09-23T10:43:39.327Z,39.60
2017-09-23T10:46:41.371Z,36.20
2017-09-23T10:49:43.746Z,39.50
2017-09-23T10:52:45.697Z,40.17
2017-09-23T10:55:48.031Z,37.70
2017-09-23T10:58:49.981Z,38.97
2017-09-23T11:01:52.343Z,40.72
2017-09-23T11:04:54.296Z,40.45
2017-09-23T11:07:56.639Z,39.80
2017-09-23T11:10:58.601Z,39.80
2017-09-23T11:14:00.955Z,40.12
2017-09-23T11:17:02.996Z,37.10
2017-09-23T11:20:05.346Z,42.25
2017-09-23T11:23:07.318Z,38.28
2017-09-23T11:26:09.672Z,39.35
2017-09-23T11:29:11.711Z,37.53
2017-09-23T11:32:14.173Z,35.35
2017-09-23T11:35:16.137Z,34.92
2017-09-23T11:38:18.488Z,38.13
2017-09-23T11:41:20.538Z,36.72
2017-09-23T11:44:22.892Z,37.65
2017-09-23T11:47:25.661Z,35.97
2017-09-23T11:50:28.000Z,29.30
2017-09-23T11:53:29.961Z,28.42
2017-09-23T11:56:32.320Z,28.80
2017-09-23T11:59:34.286Z,29.45
2017-09-23T12:02:36.634Z,32.58
2017-09-23T12:05:38.662Z,31.67
2017-09-23T12:08:41.035Z,31.52
2017-09-23T12:11:42.971Z,29.10
2017-09-23T12:14:45.338Z,25.98
2017-09-23T12:17:47.390Z,29.10
2017-09-23T12:20:49.671Z,27.73
2017-09-23T12:23:51.708Z,29.05
2017-09-23T12:26:54.061Z,26.08
2017-09-23T12:29:56.098Z,27.90
2017-09-23T12:32:58.469Z,26.48
2017-09-23T12:36:00.519Z,28.33
2017-09-23T12:39:02.810Z,28.83
2017-09-23T12:42:04.833Z,26.20
2017-09-23T12:45:07.179Z,24.85
2017-09-23T12:48:09.226Z,24.00
2017-09-23T12:51:11.682Z,27.70
2017-09-23T12:54:13.631Z,28.73
2017-09-23T12:57:15.984Z,29.80
2017-09-23T13:00:17.944Z,28.10
2017-09-23T13:03:20.294Z,29.73
2017-09-23T13:06:22.242Z,31.30
2017-09-23T13:09:24.603Z,28.75
2017-09-23T13:12:26.547Z,29.52
2017-09-23T13:15:28.913Z,31.42
2017-09-23T13:18:30.855Z,29.95
2017-09-23T13:21:33.203Z,29.55
2017-09-23T13:24:35.151Z,32.33
2017-09-23T13:27:37.522Z,33.55
2017-09-23T13:30:39.454Z,27.83
2017-09-23T13:33:41.759Z,27.45
2017-09-23T13:36:43.764Z,25.27
2017-09-23T13:39:46.026Z,25.15
2017-09-23T13:42:47.969Z,23.55
2017-09-23T13:45:50.249Z,24.27
2017-09-23T13:48:52.206Z,24.98
2017-09-23T13:51:55.648Z,24.33
2017-09-23T13:54:57.589Z,24.05
2017-09-23T13:58:00.549Z,25.58
2017-09-23T14:01:03.253Z,23.92
2017-09-23T14:04:05.597Z,26.67
2017-09-23T14:07:07.568Z,25.95
2017-09-23T14:10:09.919Z,26.40
2017-09-23T14:13:11.955Z,26.37
2017-09-23T14:16:14.291Z,26.08
2017-09-23T14:19:16.988Z,29.85
2017-09-23T14:22:19.338Z,29.37
2017-09-23T14:25:21.295Z,29.48
2017-09-23T14:28:24.458Z,29.42
2017-09-23T14:31:26.483Z,30.33
2017-09-23T14:34:29.612Z,31.67
2017-09-23T14:37:31.638Z,30.05
2017-09-23T14:40:34.009Z,28.27
2017-09-23T14:43:35.945Z,27.87
2017-09-23T14:46:38.329Z,29.10
2017-09-23T14:49:40.291Z,27.83
2017-09-23T14:52:42.702Z,24.02
2017-09-23T14:55:44.660Z,26.23
2017-09-23T14:58:47.118Z,26.40
2017-09-23T15:01:49.055Z,27.77
2017-09-23T15:04:51.391Z,29.45
2017-09-23T15:07:53.374Z,29.75
2017-09-23T15:10:55.724Z,28.20
2017-09-23T15:13:57.691Z,28.70
2017-09-23T15:17:00.236Z,30.65
2017-09-23T15:20:02.194Z,30.85
2017-09-23T15:23:04.531Z,30.08
2017-09-23T15:26:06.467Z,31.90
2017-09-23T15:29:09.586Z,41.92
2017-09-23T15:32:11.519Z,29.05
2017-09-23T15:35:13.990Z,29.42
2017-09-23T15:38:16.023Z,30.45
2017-09-23T15:41:18.416Z,33.92
2017-09-23T15:44:20.439Z,31.25
2017-09-23T15:47:22.796Z,31.00
2017-09-23T15:50:24.743Z,31.65
2017-09-23T15:53:27.098Z,29.50
2017-09-23T15:56:29.039Z,29.85
2017-09-23T15:59:31.419Z,31.92
2017-09-23T16:02:33.473Z,34.20
2017-09-23T16:05:35.811Z,32.83
2017-09-23T16:08:37.851Z,32.03
2017-09-23T16:11:40.235Z,31.62
2017-09-23T16:14:42.259Z,30.30
2017-09-23T16:17:44.730Z,33.63
2017-09-23T16:20:46.659Z,31.27
2017-09-23T16:23:49.054Z,31.00
2017-09-23T16:26:50.982Z,30.08
2017-09-23T16:29:53.340Z,29.15
2017-09-23T16:32:55.287Z,27.10
2017-09-23T16:35:57.648Z,27.77
2017-09-23T16:38:59.699Z,28.42
2017-09-23T16:42:01.996Z,32.97
2017-09-23T16:45:04.918Z,27.90
2017-09-23T16:48:07.379Z,30.65
2017-09-23T16:51:09.326Z,37.17
2017-09-23T16:54:11.642Z,33.70
2017-09-23T16:57:14.367Z,31.10
2017-09-23T17:00:16.703Z,32.15
2017-09-23T17:03:18.788Z,32.47
2017-09-23T17:06:21.068Z,29.20
2017-09-23T17:09:23.030Z,30.10
2017-09-23T17:12:26.238Z,32.08
2017-09-23T17:15:28.192Z,31.27
2017-09-23T17:18:30.555Z,32.50
2017-09-23T17:21:32.505Z,32.53
2017-09-23T17:24:34.943Z,35.53
2017-09-23T17:27:37.015Z,43.33
2017-09-23T17:30:39.383Z,43.47
2017-09-23T17:33:41.415Z,37.28
2017-09-23T17:36:43.767Z,35.65
2017-09-23T17:39:45.702Z,36.40
2017-09-23T17:42:48.066Z,34.40
2017-09-23T17:45:50.068Z,35.50
2017-09-23T17:48:53.203Z,37.30
2017-09-23T17:51:55.154Z,38.08
2017-09-23T17:54:57.485Z,36.28
2017-09-23T17:57:59.565Z,35.85
2017-09-23T18:01:01.912Z,36.63
2017-09-23T18:04:04.642Z,35.05
2017-09-23T18:07:06.975Z,39.08
2017-09-23T18:10:08.920Z,36.67
2017-09-23T18:13:11.293Z,40.08
2017-09-23T18:16:13.322Z,38.50
2017-09-23T18:19:15.698Z,38.65
2017-09-23T18:22:17.676Z,40.58
2017-09-23T18:25:20.925Z,41.17
2017-09-23T18:28:22.881Z,45.05
2017-09-23T18:31:25.217Z,44.28
2017-09-23T18:34:27.167Z,41.33
2017-09-23T18:37:29.519Z,43.05
2017-09-23T18:40:31.672Z,42.40
2017-09-23T18:43:34.006Z,43.50
2017-09-23T18:46:36.852Z,48.17
2017-09-23T18:49:39.150Z,43.85
2017-09-23T18:52:41.112Z,43.35
2017-09-23T18:55:43.469Z,44.25
2017-09-23T18:58:45.432Z,43.55
2017-09-23T19:01:47.765Z,44.20
2017-09-23T19:04:49.724Z,43.22
2017-09-23T19:07:52.845Z,46.15
2017-09-23T19:10:55.661Z,251.85
2017-09-23T19:13:58.028Z,194.23
2017-09-23T19:17:00.081Z,234.12
2017-09-23T19:20:02.448Z,71.95
2017-09-23T19:23:04.476Z,51.50
2017-09-23T19:26:07.568Z,47.78
2017-09-23T19:29:09.586Z,49.42
2017-09-23T19:32:11.875Z,49.88
2017-09-23T19:35:13.891Z,48.22
2017-09-23T19:38:16.267Z,49.00
2017-09-23T19:41:18.316Z,50.60
2017-09-23T19:44:20.995Z,48.78
2017-09-23T19:47:23.012Z,49.25
2017-09-23T19:50:25.320Z,53.53
2017-09-23T19:53:27.293Z,50.65
2017-09-23T19:56:29.587Z,47.47
2017-09-23T19:59:31.855Z,55.28
2017-09-23T20:02:34.205Z,55.50
2017-09-23T20:05:37.377Z,54.78
2017-09-23T20:08:39.740Z,62.65
2017-09-23T20:11:41.770Z,63.42
2017-09-23T20:14:44.148Z,59.90
2017-09-23T20:17:46.080Z,60.65
2017-09-23T20:20:48.456Z,64.57
2017-09-23T20:23:50.463Z,64.57
2017-09-23T20:26:53.561Z,68.10
2017-09-23T20:29:55.513Z,61.17
2017-09-23T20:32:57.891Z,62.97
2017-09-23T20:35:59.926Z,63.30
2017-09-23T20:39:02.369Z,61.92
2017-09-23T20:42:04.321Z,65.80
2017-09-23T20:45:06.676Z,66.40
2017-09-23T20:48:08.701Z,64.87
2017-09-23T20:51:11.261Z,66.00
2017-09-23T20:54:13.236Z,69.20
2017-09-23T20:57:15.577Z,79.40
2017-09-23T21:00:17.624Z,71.62
2017-09-23T21:03:19.992Z,73.30
2017-09-23T21:06:22.031Z,74.80
2017-09-23T21:09:24.400Z,74.62
2017-09-23T21:12:26.441Z,70.55
2017-09-23T21:15:28.808Z,72.35
2017-09-23T21:18:30.848Z,68.00
2017-09-23T21:21:33.133Z,59.33
2017-09-23T21:24:35.155Z,58.33
2017-09-23T21:27:37.506Z,58.22
2017-09-23T21:30:39.613Z,54.63
2017-09-23T21:33:42.893Z,59.75
2017-09-23T21:36:45.612Z,53.83
2017-09-23T21:39:47.948Z,55.88
2017-09-23T21:42:49.880Z,49.22
2017-09-23T21:45:52.383Z,49.80
2017-09-23T21:48:54.321Z,48.42
2017-09-23T21:51:56.702Z,47.47
2017-09-23T21:54:58.726Z,48.72
2017-09-23T21:58:01.095Z,45.42
2017-09-23T22:01:03.046Z,46.55
2017-09-23T22:04:05.433Z,42.10
2017-09-23T22:07:08.168Z,42.53
2017-09-23T22:10:10.525Z,41.30
2017-09-23T22:13:12.496Z,40.08
2017-09-23T22:16:14.861Z,39.42
2017-09-23T22:19:16.862Z,38.78
2017-09-23T22:22:19.227Z,38.20
2017-09-23T22:25:21.168Z,38.28
2017-09-23T22:28:23.519Z,35.97
2017-09-23T22:31:25.482Z,33.58
2017-09-23T22:34:27.750Z,34.13
2017-09-23T22:37:29.755Z,33.80
2017-09-23T22:40:33.663Z,34.88
2017-09-23T22:43:35.629Z,32.67
2017-09-23T22:46:38.116Z,33.47
2017-09-23T22:49:40.172Z,32.05
2017-09-23T22:52:42.513Z,33.58
2017-09-23T22:55:44.479Z,30.75
2017-09-23T22:58:46.841Z,31.75
2017-09-23T23:01:48.778Z,30.80
2017-09-23T23:04:51.099Z,32.40
2017-09-23T23:07:53.060Z,32.85
2017-09-23T23:10:55.420Z,31.10
2017-09-23T23:13:57.471Z,30.73
2017-09-23T23:16:59.752Z,30.33
2017-09-23T23:20:01.776Z,29.30
2017-09-23T23:23:04.132Z,28.92
2017-09-23T23:26:06.195Z,31.12
2017-09-23T23:29:08.584Z,29.17
2017-09-23T23:32:11.577Z,29.48
2017-09-23T23:35:14.687Z,32.60
2017-09-23T23:38:16.735Z,31.23
2017-09-23T23:41:19.215Z,30.92
2017-09-23T23:44:21.362Z,30.58
2017-09-23T23:47:23.750Z,30.62
2017-09-23T23:50:25.799Z,31.95
2017-09-23T23:53:28.154Z,32.05
2017-09-23T23:56:30.982Z,31.30
2017-09-23T23:59:33.309Z,29.70
